sensor_id;sensor_type;location;lat;lon;timestamp;temperature;humidity
22108;DHT22;11220;48.812;9.128;2023-10-09T00:18:03;19.50;87.50
22108;DHT22;11220;48.812;9.128;2023-10-09T00:20:38;19.50;86.60
22108;DHT22;11220;48.812;9.128;2023-10-09T00:23:08;19.50;86.50
22108;DHT22;11220;48.812;9.128;2023-10-09T02:22:02;19.20;87.00
22108;DHT22;11220;48.812;9.128;2023-10-09T02:24:38;19.20;87.00
22108;DHT22;11220;48.812;9.128;2023-10-09T02:27:23;19.20;87.10
22108;DHT22;11220;48.812;9.128;2023-10-09T02:30:08;19.20;87.20
22108;DHT22;11220;48.812;9.128;2023-10-09T02:32:44;19.20;87.20
22108;DHT22;11220;48.812;9.128;2023-10-09T06:35:54;19.00;88.40
22108;DHT22;11220;48.812;9.128;2023-10-09T06:38:20;19.00;88.50
22108;DHT22;11220;48.812;9.128;2023-10-09T06:40:58;19.00;88.60
22108;DHT22;11220;48.812;9.128;2023-10-09T06:43:29;19.10;88.70
22108;DHT22;11220;48.812;9.128;2023-10-09T06:45:56;19.00;88.80
22108;DHT22;11220;48.812;9.128;2023-10-09T06:48:41;19.00;88.80
22108;DHT22;11220;48.812;9.128;2023-10-09T06:51:13;19.00;88.80
22108;DHT22;11220;48.812;9.128;2023-10-09T06:53:55;19.00;88.80
22108;DHT22;11220;48.812;9.128;2023-10-09T06:56:25;19.10;89.00
22108;DHT22;11220;48.812;9.128;2023-10-09T06:59:11;19.00;89.00
22108;DHT22;11220;48.812;9.128;2023-10-09T07:01:42;19.80;89.60
22108;DHT22;11220;48.812;9.128;2023-10-09T07:04:12;19.50;89.30
22108;DHT22;11220;48.812;9.128;2023-10-09T07:06:55;19.10;89.20
22108;DHT22;11220;48.812;9.128;2023-10-09T07:09:22;19.10;89.30
22108;DHT22;11220;48.812;9.128;2023-10-09T07:11:49;19.10;89.30
22108;DHT22;11220;48.812;9.128;2023-10-09T07:14:16;19.40;89.80
22108;DHT22;11220;48.812;9.128;2023-10-09T07:17:18;19.10;89.50
22108;DHT22;11220;48.812;9.128;2023-10-09T07:19:59;19.10;89.50
22108;DHT22;11220;48.812;9.128;2023-10-09T07:22:41;19.40;89.60
22108;DHT22;11220;48.812;9.128;2023-10-09T07:25:21;19.20;89.60
22108;DHT22;11220;48.812;9.128;2023-10-09T07:28:09;19.10;89.50
22108;DHT22;11220;48.812;9.128;2023-10-09T07:30:54;19.10;89.60
22108;DHT22;11220;48.812;9.128;2023-10-09T07:33:23;19.10;89.60
22108;DHT22;11220;48.812;9.128;2023-10-09T07:36:01;19.10;89.70
22108;DHT22;11220;48.812;9.128;2023-10-09T07:38:31;19.10;89.70
22108;DHT22;11220;48.812;9.128;2023-10-09T07:41:03;19.20;89.80
22108;DHT22;11220;48.812;9.128;2023-10-09T07:43:33;19.20;89.80
22108;DHT22;11220;48.812;9.128;2023-10-09T07:46:09;19.10;89.80
22108;DHT22;11220;48.812;9.128;2023-10-09T07:48:58;19.20;90.00
22108;DHT22;11220;48.812;9.128;2023-10-09T07:51:27;19.20;90.00
22108;DHT22;11220;48.812;9.128;2023-10-09T07:53:57;19.20;90.00
22108;DHT22;11220;48.812;9.128;2023-10-09T07:56:41;19.10;90.00
22108;DHT22;11220;48.812;9.128;2023-10-09T07:59:08;19.20;90.00
22108;DHT22;11220;48.812;9.128;2023-10-09T08:01:49;19.20;90.10
22108;DHT22;11220;48.812;9.128;2023-10-09T08:04:19;19.20;90.10
22108;DHT22;11220;48.812;9.128;2023-10-09T08:07:03;19.20;90.10
22108;DHT22;11220;48.812;9.128;2023-10-09T08:09:32;19.20;90.10
22108;DHT22;11220;48.812;9.128;2023-10-09T08:12:13;19.20;90.10
22108;DHT22;11220;48.812;9.128;2023-10-09T08:14:41;19.20;90.10
22108;DHT22;11220;48.812;9.128;2023-10-09T08:17:13;19.50;90.20
22108;DHT22;11220;48.812;9.128;2023-10-09T08:19:42;19.30;90.20
22108;DHT22;11220;48.812;9.128;2023-10-09T08:22:24;19.30;90.20
22108;DHT22;11220;48.812;9.128;2023-10-09T08:24:51;19.30;90.20
22108;DHT22;11220;48.812;9.128;2023-10-09T08:27:27;19.30;90.20
22108;DHT22;11220;48.812;9.128;2023-10-09T08:30:13;19.30;90.20
22108;DHT22;11220;48.812;9.128;2023-10-09T08:32:51;19.30;90.20
22108;DHT22;11220;48.812;9.128;2023-10-09T08:35:46;19.90;90.40
22108;DHT22;11220;48.812;9.128;2023-10-09T08:38:13;19.30;90.30
22108;DHT22;11220;48.812;9.128;2023-10-09T08:40:40;19.30;90.30
22108;DHT22;11220;48.812;9.128;2023-10-09T08:43:09;19.30;90.30
22108;DHT22;11220;48.812;9.128;2023-10-09T08:45:39;19.30;90.30
22108;DHT22;11220;48.812;9.128;2023-10-09T08:48:09;19.40;90.70
22108;DHT22;11220;48.812;9.128;2023-10-09T08:50:44;19.40;90.30
22108;DHT22;11220;48.812;9.128;2023-10-09T08:53:13;19.40;90.30
22108;DHT22;11220;48.812;9.128;2023-10-09T08:55:40;19.40;90.30
22108;DHT22;11220;48.812;9.128;2023-10-09T08:58:06;19.40;90.40
22108;DHT22;11220;48.812;9.128;2023-10-09T09:00:41;19.40;90.30
22108;DHT22;11220;48.812;9.128;2023-10-09T09:03:11;19.40;90.40
22108;DHT22;11220;48.812;9.128;2023-10-09T09:05:37;19.40;90.40
22108;DHT22;11220;48.812;9.128;2023-10-09T09:08:03;19.40;90.40
22108;DHT22;11220;48.812;9.128;2023-10-09T09:10:29;19.50;90.40
22108;DHT22;11220;48.812;9.128;2023-10-09T09:13:03;19.30;90.40
22108;DHT22;11220;48.812;9.128;2023-10-09T09:15:29;19.50;90.40
22108;DHT22;11220;48.812;9.128;2023-10-09T09:18:07;19.50;90.40
22108;DHT22;11220;48.812;9.128;2023-10-09T09:20:34;19.50;90.40
22108;DHT22;11220;48.812;9.128;2023-10-09T09:23:02;19.50;90.40
22108;DHT22;11220;48.812;9.128;2023-10-09T09:25:45;19.50;90.30
22108;DHT22;11220;48.812;9.128;2023-10-09T09:28:14;19.50;90.30
22108;DHT22;11220;48.812;9.128;2023-10-09T09:30:47;19.60;90.40
22108;DHT22;11220;48.812;9.128;2023-10-09T09:33:27;19.50;90.30
22108;DHT22;11220;48.812;9.128;2023-10-09T09:36:05;19.60;90.40
22108;DHT22;11220;48.812;9.128;2023-10-09T09:38:33;19.60;90.40
22108;DHT22;11220;48.812;9.128;2023-10-09T09:41:17;19.60;90.40
22108;DHT22;11220;48.812;9.128;2023-10-09T09:43:59;19.60;90.40
22108;DHT22;11220;48.812;9.128;2023-10-09T09:46:37;19.60;90.50
22108;DHT22;11220;48.812;9.128;2023-10-09T09:49:05;19.60;90.70
22108;DHT22;11220;48.812;9.128;2023-10-09T09:51:33;19.60;90.80
22108;DHT22;11220;48.812;9.128;2023-10-09T09:53:58;19.70;91.00
22108;DHT22;11220;48.812;9.128;2023-10-09T09:56:25;19.70;91.10
22108;DHT22;11220;48.812;9.128;2023-10-09T09:58:51;20.50;91.30
22108;DHT22;11220;48.812;9.128;2023-10-09T10:01:25;19.70;91.10
22108;DHT22;11220;48.812;9.128;2023-10-09T10:06:23;19.80;91.10
22108;DHT22;11220;48.812;9.128;2023-10-09T10:08:52;19.70;91.10
22108;DHT22;11220;48.812;9.128;2023-10-09T10:11:44;19.80;91.10
22108;DHT22;11220;48.812;9.128;2023-10-09T10:14:13;19.80;91.10
22108;DHT22;11220;48.812;9.128;2023-10-09T10:17:04;19.80;91.10
22108;DHT22;11220;48.812;9.128;2023-10-09T10:22:27;19.80;91.00
22108;DHT22;11220;48.812;9.128;2023-10-09T10:24:53;20.00;91.00
22108;DHT22;11220;48.812;9.128;2023-10-09T10:27:20;19.90;90.90
22108;DHT22;11220;48.812;9.128;2023-10-09T10:35:17;19.90;90.80
22108;DHT22;11220;48.812;9.128;2023-10-09T10:37:46;20.30;90.90
22108;DHT22;11220;48.812;9.128;2023-10-09T10:40:28;20.00;90.80
22108;DHT22;11220;48.812;9.128;2023-10-09T10:43:07;20.00;90.80
22108;DHT22;11220;48.812;9.128;2023-10-09T10:45:39;20.00;90.80
22108;DHT22;11220;48.812;9.128;2023-10-09T10:48:11;20.00;90.80
22108;DHT22;11220;48.812;9.128;2023-10-09T10:51:03;20.00;90.80
22108;DHT22;11220;48.812;9.128;2023-10-09T10:53:30;20.00;90.70
22108;DHT22;11220;48.812;9.128;2023-10-09T10:56:13;20.00;90.70
22108;DHT22;11220;48.812;9.128;2023-10-09T10:58:42;20.00;90.70
22108;DHT22;11220;48.812;9.128;2023-10-09T11:01:20;20.00;91.20
22108;DHT22;11220;48.812;9.128;2023-10-09T11:03:50;20.00;90.70
22108;DHT22;11220;48.812;9.128;2023-10-09T11:06:29;20.00;90.70
22108;DHT22;11220;48.812;9.128;2023-10-09T11:09:04;20.10;90.70
22108;DHT22;11220;48.812;9.128;2023-10-09T11:11:51;20.10;90.70
22108;DHT22;11220;48.812;9.128;2023-10-09T11:14:20;20.10;90.70
22108;DHT22;11220;48.812;9.128;2023-10-09T11:16:50;20.10;90.70
22108;DHT22;11220;48.812;9.128;2023-10-09T11:19:22;20.10;90.70
22108;DHT22;11220;48.812;9.128;2023-10-09T11:21:54;20.10;90.70
22108;DHT22;11220;48.812;9.128;2023-10-09T11:24:35;20.20;90.70
22108;DHT22;11220;48.812;9.128;2023-10-09T11:27:05;20.10;90.70
22108;DHT22;11220;48.812;9.128;2023-10-09T11:29:32;20.20;90.70
22108;DHT22;11220;48.812;9.128;2023-10-09T11:32:22;20.20;90.70
22108;DHT22;11220;48.812;9.128;2023-10-09T11:35:11;20.10;90.70
22108;DHT22;11220;48.812;9.128;2023-10-09T11:37:36;20.20;90.80
22108;DHT22;11220;48.812;9.128;2023-10-09T11:40:30;20.10;90.80
22108;DHT22;11220;48.812;9.128;2023-10-09T11:43:10;20.20;90.80
22108;DHT22;11220;48.812;9.128;2023-10-09T11:45:39;20.20;90.80
22108;DHT22;11220;48.812;9.128;2023-10-09T11:48:18;20.10;90.70
22108;DHT22;11220;48.812;9.128;2023-10-09T11:51:04;20.20;90.70
22108;DHT22;11220;48.812;9.128;2023-10-09T11:53:43;20.10;90.80
22108;DHT22;11220;48.812;9.128;2023-10-09T11:56:11;20.20;90.80
22108;DHT22;11220;48.812;9.128;2023-10-09T11:58:40;20.20;90.80
22108;DHT22;11220;48.812;9.128;2023-10-09T12:01:13;20.20;90.80
22108;DHT22;11220;48.812;9.128;2023-10-09T12:03:46;20.20;90.80
22108;DHT22;11220;48.812;9.128;2023-10-09T12:06:20;20.20;90.80
22108;DHT22;11220;48.812;9.128;2023-10-09T12:08:48;20.20;90.80
22108;DHT22;11220;48.812;9.128;2023-10-09T12:11:14;20.20;90.80
22108;DHT22;11220;48.812;9.128;2023-10-09T12:13:41;20.20;90.80
22108;DHT22;11220;48.812;9.128;2023-10-09T12:16:11;20.20;90.80
22108;DHT22;11220;48.812;9.128;2023-10-09T12:18:37;20.20;90.80
22108;DHT22;11220;48.812;9.128;2023-10-09T12:21:05;20.20;90.90
22108;DHT22;11220;48.812;9.128;2023-10-09T12:23:31;20.30;90.90
22108;DHT22;11220;48.812;9.128;2023-10-09T12:26:02;20.30;90.90
22108;DHT22;11220;48.812;9.128;2023-10-09T12:28:28;20.30;90.90
22108;DHT22;11220;48.812;9.128;2023-10-09T12:30:55;20.30;90.90
22108;DHT22;11220;48.812;9.128;2023-10-09T12:33:27;20.30;91.00
22108;DHT22;11220;48.812;9.128;2023-10-09T12:35:54;20.30;91.00
22108;DHT22;11220;48.812;9.128;2023-10-09T12:38:26;20.30;91.00
22108;DHT22;11220;48.812;9.128;2023-10-09T12:41:06;20.40;91.00
22108;DHT22;11220;48.812;9.128;2023-10-09T12:43:48;20.40;91.00
22108;DHT22;11220;48.812;9.128;2023-10-09T12:46:14;20.40;91.00
22108;DHT22;11220;48.812;9.128;2023-10-09T12:51:12;20.50;91.00
22108;DHT22;11220;48.812;9.128;2023-10-09T12:53:42;20.50;91.00
22108;DHT22;11220;48.812;9.128;2023-10-09T12:56:07;20.50;91.00
22108;DHT22;11220;48.812;9.128;2023-10-09T12:58:34;20.50;90.90
22108;DHT22;11220;48.812;9.128;2023-10-09T13:01:03;20.40;90.90
22108;DHT22;11220;48.812;9.128;2023-10-09T13:03:35;20.50;90.90
22108;DHT22;11220;48.812;9.128;2023-10-09T13:06:04;20.50;90.90
22108;DHT22;11220;48.812;9.128;2023-10-09T13:08:36;20.50;90.90
22108;DHT22;11220;48.812;9.128;2023-10-09T13:11:03;20.50;90.80
22108;DHT22;11220;48.812;9.128;2023-10-09T13:13:43;20.50;90.80
22108;DHT22;11220;48.812;9.128;2023-10-09T13:16:13;20.50;90.80
22108;DHT22;11220;48.812;9.128;2023-10-09T13:18:46;20.50;90.80
22108;DHT22;11220;48.812;9.128;2023-10-09T13:21:25;20.60;90.90
22108;DHT22;11220;48.812;9.128;2023-10-09T13:23:52;20.60;90.80
22108;DHT22;11220;48.812;9.128;2023-10-09T13:26:21;20.70;90.80
22108;DHT22;11220;48.812;9.128;2023-10-09T13:28:58;20.70;90.70
22108;DHT22;11220;48.812;9.128;2023-10-09T13:31:28;20.70;90.60
22108;DHT22;11220;48.812;9.128;2023-10-09T13:33:57;20.60;90.60
22108;DHT22;11220;48.812;9.128;2023-10-09T13:36:25;20.80;90.60
22108;DHT22;11220;48.812;9.128;2023-10-09T13:39:04;20.80;90.50
22108;DHT22;11220;48.812;9.128;2023-10-09T13:41:52;20.90;90.50
22108;DHT22;11220;48.812;9.128;2023-10-09T13:44:30;20.90;90.40
22108;DHT22;11220;48.812;9.128;2023-10-09T13:46:57;21.10;90.40
22108;DHT22;11220;48.812;9.128;2023-10-09T13:49:24;21.00;90.40
22108;DHT22;11220;48.812;9.128;2023-10-09T13:51:55;21.10;90.30
22108;DHT22;11220;48.812;9.128;2023-10-09T13:54:22;21.20;90.30
22108;DHT22;11220;48.812;9.128;2023-10-09T13:56:57;21.20;90.30
22108;DHT22;11220;48.812;9.128;2023-10-09T13:59:23;21.30;90.30
22108;DHT22;11220;48.812;9.128;2023-10-09T14:01:53;21.30;90.20
22108;DHT22;11220;48.812;9.128;2023-10-09T14:04:22;21.30;90.20
22108;DHT22;11220;48.812;9.128;2023-10-09T14:06:49;21.40;90.20
22108;DHT22;11220;48.812;9.128;2023-10-09T14:09:17;21.40;90.20
22108;DHT22;11220;48.812;9.128;2023-10-09T14:12:03;21.40;90.20
22108;DHT22;11220;48.812;9.128;2023-10-09T14:14:43;21.40;90.20
22108;DHT22;11220;48.812;9.128;2023-10-09T14:17:17;21.50;90.20
22108;DHT22;11220;48.812;9.128;2023-10-09T14:19:49;21.40;90.60
22108;DHT22;11220;48.812;9.128;2023-10-09T14:22:17;21.50;90.10
22108;DHT22;11220;48.812;9.128;2023-10-09T14:24:47;21.50;90.50
22108;DHT22;11220;48.812;9.128;2023-10-09T14:27:17;21.50;90.00
22108;DHT22;11220;48.812;9.128;2023-10-09T14:29:47;21.40;90.00
22108;DHT22;11220;48.812;9.128;2023-10-09T14:32:13;21.40;90.20
22108;DHT22;11220;48.812;9.128;2023-10-09T14:34:39;21.40;90.00
22108;DHT22;11220;48.812;9.128;2023-10-09T14:37:12;21.40;90.00
22108;DHT22;11220;48.812;9.128;2023-10-09T14:39:38;21.40;90.00
22108;DHT22;11220;48.812;9.128;2023-10-09T14:42:05;21.40;90.00
22108;DHT22;11220;48.812;9.128;2023-10-09T14:44:37;21.40;89.80
22108;DHT22;11220;48.812;9.128;2023-10-09T14:47:07;21.40;89.80
22108;DHT22;11220;48.812;9.128;2023-10-09T14:49:33;21.30;89.60
22108;DHT22;11220;48.812;9.128;2023-10-09T14:52:09;21.40;89.50
22108;DHT22;11220;48.812;9.128;2023-10-09T14:54:36;21.30;89.50
22108;DHT22;11220;48.812;9.128;2023-10-09T14:57:02;21.30;89.50
22108;DHT22;11220;48.812;9.128;2023-10-09T14:59:31;21.30;89.50
22108;DHT22;11220;48.812;9.128;2023-10-09T15:01:57;21.30;89.40
22108;DHT22;11220;48.812;9.128;2023-10-09T15:04:23;21.30;89.40
22108;DHT22;11220;48.812;9.128;2023-10-09T15:06:53;21.40;89.40
22108;DHT22;11220;48.812;9.128;2023-10-09T15:09:19;21.30;89.20
22108;DHT22;11220;48.812;9.128;2023-10-09T15:11:49;21.30;89.10
22108;DHT22;11220;48.812;9.128;2023-10-09T15:14:15;21.30;89.00
22108;DHT22;11220;48.812;9.128;2023-10-09T15:16:41;21.30;89.00
22108;DHT22;11220;48.812;9.128;2023-10-09T15:19:08;21.20;88.80
22108;DHT22;11220;48.812;9.128;2023-10-09T15:21:38;21.30;88.90
22108;DHT22;11220;48.812;9.128;2023-10-09T15:24:11;21.20;88.70
22108;DHT22;11220;48.812;9.128;2023-10-09T15:26:48;21.30;88.70
22108;DHT22;11220;48.812;9.128;2023-10-09T15:29:27;21.20;88.60
22108;DHT22;11220;48.812;9.128;2023-10-09T15:31:59;21.30;88.70
22108;DHT22;11220;48.812;9.128;2023-10-09T15:34:33;21.20;88.60
22108;DHT22;11220;48.812;9.128;2023-10-09T15:37:02;21.20;88.60
22108;DHT22;11220;48.812;9.128;2023-10-09T15:39:29;21.10;88.50
22108;DHT22;11220;48.812;9.128;2023-10-09T15:41:56;21.20;88.60
22108;DHT22;11220;48.812;9.128;2023-10-09T15:44:21;21.20;88.60
22108;DHT22;11220;48.812;9.128;2023-10-09T15:46:50;21.20;88.50
22108;DHT22;11220;48.812;9.128;2023-10-09T15:49:16;21.20;88.50
22108;DHT22;11220;48.812;9.128;2023-10-09T15:51:41;21.20;88.40
22108;DHT22;11220;48.812;9.128;2023-10-09T15:54:09;21.20;88.30
22108;DHT22;11220;48.812;9.128;2023-10-09T15:56:36;21.10;88.20
22108;DHT22;11220;48.812;9.128;2023-10-09T15:59:05;21.20;88.20
22108;DHT22;11220;48.812;9.128;2023-10-09T16:01:30;21.20;88.20
22108;DHT22;11220;48.812;9.128;2023-10-09T16:03:56;21.20;88.30
22108;DHT22;11220;48.812;9.128;2023-10-09T16:06:23;21.20;88.20
22108;DHT22;11220;48.812;9.128;2023-10-09T16:08:52;21.10;88.20
22108;DHT22;11220;48.812;9.128;2023-10-09T16:11:19;21.10;88.10
22108;DHT22;11220;48.812;9.128;2023-10-09T16:13:44;21.10;88.10
22108;DHT22;11220;48.812;9.128;2023-10-09T16:16:10;21.10;88.10
22108;DHT22;11220;48.812;9.128;2023-10-09T16:18:38;21.10;88.20
22108;DHT22;11220;48.812;9.128;2023-10-09T16:21:05;21.10;88.10
22108;DHT22;11220;48.812;9.128;2023-10-09T16:23:32;21.10;88.10
22108;DHT22;11220;48.812;9.128;2023-10-09T16:25:58;21.10;88.10
22108;DHT22;11220;48.812;9.128;2023-10-09T16:28:27;21.10;88.10
22108;DHT22;11220;48.812;9.128;2023-10-09T16:30:53;21.10;88.10
22108;DHT22;11220;48.812;9.128;2023-10-09T16:33:19;21.10;88.10
22108;DHT22;11220;48.812;9.128;2023-10-09T16:35:45;21.00;88.10
22108;DHT22;11220;48.812;9.128;2023-10-09T16:38:12;21.00;88.10
22108;DHT22;11220;48.812;9.128;2023-10-09T16:40:39;21.10;88.10
22108;DHT22;11220;48.812;9.128;2023-10-09T16:43:05;21.10;88.10
22108;DHT22;11220;48.812;9.128;2023-10-09T16:45:31;21.00;88.00
22108;DHT22;11220;48.812;9.128;2023-10-09T16:48:01;21.00;88.10
22108;DHT22;11220;48.812;9.128;2023-10-09T16:50:29;21.00;88.10
22108;DHT22;11220;48.812;9.128;2023-10-09T16:52:55;21.00;88.10
22108;DHT22;11220;48.812;9.128;2023-10-09T16:55:20;21.00;88.10
22108;DHT22;11220;48.812;9.128;2023-10-09T16:57:47;20.90;88.10
22108;DHT22;11220;48.812;9.128;2023-10-09T17:00:17;20.90;88.10
22108;DHT22;11220;48.812;9.128;2023-10-09T17:03:04;21.00;88.10
22108;DHT22;11220;48.812;9.128;2023-10-09T17:05:36;21.00;88.10
22108;DHT22;11220;48.812;9.128;2023-10-09T17:08:16;20.90;88.10
22108;DHT22;11220;48.812;9.128;2023-10-09T17:10:44;20.90;88.10
22108;DHT22;11220;48.812;9.128;2023-10-09T17:13:11;20.90;88.10
22108;DHT22;11220;48.812;9.128;2023-10-09T17:15:38;20.90;88.20
22108;DHT22;11220;48.812;9.128;2023-10-09T17:18:04;20.80;88.10
22108;DHT22;11220;48.812;9.128;2023-10-09T17:20:32;20.90;88.20
22108;DHT22;11220;48.812;9.128;2023-10-09T17:23:04;20.80;88.20
22108;DHT22;11220;48.812;9.128;2023-10-09T17:25:29;20.90;88.30
22108;DHT22;11220;48.812;9.128;2023-10-09T17:27:58;20.90;88.30
22108;DHT22;11220;48.812;9.128;2023-10-09T17:30:26;20.80;88.30
22108;DHT22;11220;48.812;9.128;2023-10-09T17:32:54;20.90;88.40
22108;DHT22;11220;48.812;9.128;2023-10-09T17:35:22;20.90;88.40
22108;DHT22;11220;48.812;9.128;2023-10-09T17:37:48;20.80;88.30
22108;DHT22;11220;48.812;9.128;2023-10-09T17:40:13;20.80;88.30
22108;DHT22;11220;48.812;9.128;2023-10-09T17:42:43;20.90;88.40
22108;DHT22;11220;48.812;9.128;2023-10-09T17:45:10;20.80;88.30
22108;DHT22;11220;48.812;9.128;2023-10-09T17:47:35;20.80;88.30
22108;DHT22;11220;48.812;9.128;2023-10-09T17:52:30;20.70;88.20
22108;DHT22;11220;48.812;9.128;2023-10-09T17:55:01;20.80;88.30
22108;DHT22;11220;48.812;9.128;2023-10-09T17:57:34;20.80;88.30
22108;DHT22;11220;48.812;9.128;2023-10-09T18:00:01;20.60;88.10
22108;DHT22;11220;48.812;9.128;2023-10-09T18:02:29;20.80;88.20
22108;DHT22;11220;48.812;9.128;2023-10-09T18:04:56;20.70;88.10
22108;DHT22;11220;48.812;9.128;2023-10-09T18:07:22;20.70;88.10
22108;DHT22;11220;48.812;9.128;2023-10-09T18:09:48;20.70;88.10
22108;DHT22;11220;48.812;9.128;2023-10-09T18:12:19;20.70;88.10
22108;DHT22;11220;48.812;9.128;2023-10-09T18:14:45;20.70;88.10
22108;DHT22;11220;48.812;9.128;2023-10-09T18:17:11;20.70;88.10
22108;DHT22;11220;48.812;9.128;2023-10-09T18:19:40;20.70;88.00
22108;DHT22;11220;48.812;9.128;2023-10-09T18:22:06;20.70;88.00
22108;DHT22;11220;48.812;9.128;2023-10-09T18:24:32;20.70;88.20
22108;DHT22;11220;48.812;9.128;2023-10-09T18:27:06;20.60;88.20
22108;DHT22;11220;48.812;9.128;2023-10-09T18:29:40;20.60;88.20
22108;DHT22;11220;48.812;9.128;2023-10-09T18:32:07;20.60;87.90
22108;DHT22;11220;48.812;9.128;2023-10-09T18:34:32;20.60;87.80
22108;DHT22;11220;48.812;9.128;2023-10-09T18:36:58;20.60;88.00
22108;DHT22;11220;48.812;9.128;2023-10-09T18:39:24;20.60;87.90
22108;DHT22;11220;48.812;9.128;2023-10-09T18:41:50;20.80;87.50
22108;DHT22;11220;48.812;9.128;2023-10-09T18:44:19;20.50;84.20
22108;DHT22;11220;48.812;9.128;2023-10-09T18:46:45;20.30;82.20
22108;DHT22;11220;48.812;9.128;2023-10-09T18:49:12;20.10;81.50
22108;DHT22;11220;48.812;9.128;2023-10-09T18:51:38;19.90;81.60
22108;DHT22;11220;48.812;9.128;2023-10-09T18:54:04;19.80;81.80
22108;DHT22;11220;48.812;9.128;2023-10-09T18:56:31;19.60;82.00
22108;DHT22;11220;48.812;9.128;2023-10-09T18:59:01;19.50;82.40
22108;DHT22;11220;48.812;9.128;2023-10-09T19:01:35;19.40;82.80
22108;DHT22;11220;48.812;9.128;2023-10-09T19:04:02;19.20;83.10
22108;DHT22;11220;48.812;9.128;2023-10-09T19:06:30;19.20;83.50
22108;DHT22;11220;48.812;9.128;2023-10-09T19:08:55;19.10;83.80
22108;DHT22;11220;48.812;9.128;2023-10-09T19:11:23;19.00;84.10
22108;DHT22;11220;48.812;9.128;2023-10-09T19:13:50;18.90;84.70
22108;DHT22;11220;48.812;9.128;2023-10-09T19:16:16;18.90;85.00
22108;DHT22;11220;48.812;9.128;2023-10-09T19:18:42;18.90;85.40
22108;DHT22;11220;48.812;9.128;2023-10-09T19:21:09;18.80;85.70
22108;DHT22;11220;48.812;9.128;2023-10-09T19:23:36;18.80;85.90
22108;DHT22;11220;48.812;9.128;2023-10-09T19:26:03;18.70;86.00
22108;DHT22;11220;48.812;9.128;2023-10-09T19:28:29;18.70;86.30
22108;DHT22;11220;48.812;9.128;2023-10-09T19:31:08;18.70;86.50
22108;DHT22;11220;48.812;9.128;2023-10-09T19:33:40;18.60;86.80
22108;DHT22;11220;48.812;9.128;2023-10-09T19:36:08;18.60;86.90
22108;DHT22;11220;48.812;9.128;2023-10-09T19:38:43;18.80;87.20
22108;DHT22;11220;48.812;9.128;2023-10-09T19:41:10;18.60;87.50
22108;DHT22;11220;48.812;9.128;2023-10-09T19:43:51;18.60;88.40
22108;DHT22;11220;48.812;9.128;2023-10-09T19:46:19;18.70;89.00
22108;DHT22;11220;48.812;9.128;2023-10-09T19:48:46;18.80;89.10
22108;DHT22;11220;48.812;9.128;2023-10-09T19:51:12;18.90;89.00
22108;DHT22;11220;48.812;9.128;2023-10-09T19:53:39;19.00;89.00
22108;DHT22;11220;48.812;9.128;2023-10-09T19:56:08;19.10;88.90
22108;DHT22;11220;48.812;9.128;2023-10-09T19:58:40;19.20;88.70
22108;DHT22;11220;48.812;9.128;2023-10-09T20:01:09;19.20;88.50
22108;DHT22;11220;48.812;9.128;2023-10-09T20:03:36;19.30;88.50
22108;DHT22;11220;48.812;9.128;2023-10-09T20:06:03;19.40;88.30
22108;DHT22;11220;48.812;9.128;2023-10-09T20:08:29;19.40;88.20
22108;DHT22;11220;48.812;9.128;2023-10-09T20:10:55;19.50;89.10
22108;DHT22;11220;48.812;9.128;2023-10-09T20:13:20;19.50;88.20
22108;DHT22;11220;48.812;9.128;2023-10-09T20:15:55;19.50;88.10
22108;DHT22;11220;48.812;9.128;2023-10-09T20:18:21;19.50;88.00
22108;DHT22;11220;48.812;9.128;2023-10-09T20:20:46;19.60;88.10
22108;DHT22;11220;48.812;9.128;2023-10-09T20:23:12;19.60;88.10
22108;DHT22;11220;48.812;9.128;2023-10-09T20:25:44;19.60;88.10
22108;DHT22;11220;48.812;9.128;2023-10-09T20:28:13;19.60;88.00
22108;DHT22;11220;48.812;9.128;2023-10-09T20:30:39;19.70;88.00
22108;DHT22;11220;48.812;9.128;2023-10-09T20:33:06;19.60;88.00
22108;DHT22;11220;48.812;9.128;2023-10-09T20:35:31;19.70;88.10
22108;DHT22;11220;48.812;9.128;2023-10-09T20:37:57;19.70;88.00
22108;DHT22;11220;48.812;9.128;2023-10-09T20:40:27;19.70;88.10
22108;DHT22;11220;48.812;9.128;2023-10-09T20:42:54;19.70;88.10
22108;DHT22;11220;48.812;9.128;2023-10-09T20:45:22;19.70;88.10
22108;DHT22;11220;48.812;9.128;2023-10-09T20:47:49;19.70;88.10
22108;DHT22;11220;48.812;9.128;2023-10-09T20:50:21;19.70;88.10
22108;DHT22;11220;48.812;9.128;2023-10-09T20:52:48;19.70;88.10
22108;DHT22;11220;48.812;9.128;2023-10-09T20:55:15;19.70;88.10
22108;DHT22;11220;48.812;9.128;2023-10-09T20:57:45;19.70;88.20
22108;DHT22;11220;48.812;9.128;2023-10-09T21:00:12;19.70;88.20
22108;DHT22;11220;48.812;9.128;2023-10-09T21:02:48;19.80;88.30
22108;DHT22;11220;48.812;9.128;2023-10-09T21:05:14;19.80;88.30
22108;DHT22;11220;48.812;9.128;2023-10-09T21:07:42;19.80;88.30
22108;DHT22;11220;48.812;9.128;2023-10-09T21:10:08;19.80;88.30
22108;DHT22;11220;48.812;9.128;2023-10-09T21:12:37;19.80;88.30
22108;DHT22;11220;48.812;9.128;2023-10-09T21:15:03;19.80;88.30
22108;DHT22;11220;48.812;9.128;2023-10-09T21:17:29;19.80;88.30
22108;DHT22;11220;48.812;9.128;2023-10-09T21:19:54;19.80;88.30
22108;DHT22;11220;48.812;9.128;2023-10-09T21:22:20;19.80;88.30
22108;DHT22;11220;48.812;9.128;2023-10-09T21:24:45;19.80;88.30
22108;DHT22;11220;48.812;9.128;2023-10-09T21:27:12;19.80;88.30
22108;DHT22;11220;48.812;9.128;2023-10-09T21:29:37;19.80;89.10
22108;DHT22;11220;48.812;9.128;2023-10-09T21:32:03;19.70;88.10
22108;DHT22;11220;48.812;9.128;2023-10-09T21:34:32;19.80;88.30
22108;DHT22;11220;48.812;9.128;2023-10-09T21:36:59;19.70;88.20
22108;DHT22;11220;48.812;9.128;2023-10-09T21:39:26;19.80;88.20
22108;DHT22;11220;48.812;9.128;2023-10-09T21:41:51;19.70;88.10
22108;DHT22;11220;48.812;9.128;2023-10-09T21:44:18;19.70;88.20
22108;DHT22;11220;48.812;9.128;2023-10-09T21:46:43;19.80;88.30
22108;DHT22;11220;48.812;9.128;2023-10-09T21:49:10;19.70;88.20
22108;DHT22;11220;48.812;9.128;2023-10-09T21:51:35;19.70;88.20
22108;DHT22;11220;48.812;9.128;2023-10-09T21:54:03;19.70;88.30
22108;DHT22;11220;48.812;9.128;2023-10-09T21:56:29;19.70;88.30
22108;DHT22;11220;48.812;9.128;2023-10-09T21:58:54;19.70;88.30
22108;DHT22;11220;48.812;9.128;2023-10-09T22:01:21;19.70;88.30
22108;DHT22;11220;48.812;9.128;2023-10-09T22:03:53;19.70;88.30
22108;DHT22;11220;48.812;9.128;2023-10-09T22:06:21;19.70;88.80
22108;DHT22;11220;48.812;9.128;2023-10-09T22:08:48;19.70;88.30
22108;DHT22;11220;48.812;9.128;2023-10-09T22:11:13;19.70;88.30
22108;DHT22;11220;48.812;9.128;2023-10-09T22:13:41;19.70;88.30
22108;DHT22;11220;48.812;9.128;2023-10-09T22:16:07;19.70;88.30
22108;DHT22;11220;48.812;9.128;2023-10-09T22:18:33;19.70;88.30
22108;DHT22;11220;48.812;9.128;2023-10-09T22:21:05;19.70;88.30